createdAt,value
2022-11-03T00:00:12.914Z,3.68
2022-11-03T00:02:39.761Z,3.70
2022-11-03T00:05:26.692Z,3.66
2022-11-03T00:07:53.342Z,3.60
2022-11-03T00:10:19.917Z,3.60
2022-11-03T00:12:46.508Z,3.57
2022-11-03T00:15:13.123Z,3.53
2022-11-03T00:17:39.681Z,3.51
2022-11-03T00:20:06.737Z,3.47
2022-11-03T00:22:33.759Z,3.36
2022-11-03T00:25:00.436Z,3.37
2022-11-03T00:27:27.104Z,3.39
2022-11-03T00:29:53.760Z,3.37
2022-11-03T00:32:20.381Z,3.36
2022-11-03T00:34:46.958Z,3.39
2022-11-03T08:50:25.911Z,8.62
2022-11-03T08:52:52.533Z,8.68
2022-11-03T08:55:19.121Z,8.71
2022-11-03T08:57:45.674Z,8.75
2022-11-03T09:00:12.975Z,8.82
2022-11-03T09:02:39.683Z,8.86
2022-11-03T09:05:07.819Z,8.92
2022-11-03T09:10:23.499Z,8.98
2022-11-03T09:12:55.350Z,8.97
2022-11-03T09:15:21.938Z,8.95
2022-11-03T09:17:48.738Z,9.00
2022-11-03T09:20:15.833Z,9.04
2022-11-03T09:22:42.467Z,9.04
2022-11-03T09:25:09.685Z,9.04
2022-11-03T09:27:36.274Z,9.08
2022-11-03T09:30:18.501Z,9.03
2022-11-03T09:32:46.394Z,9.04
2022-11-03T09:35:14.688Z,9.06
2022-11-03T09:37:41.411Z,9.11
2022-11-03T09:40:10.264Z,9.17
2022-11-03T09:42:38.829Z,9.12
2022-11-03T09:45:07.783Z,9.20
2022-11-03T09:47:37.210Z,9.24
2022-11-03T09:50:05.195Z,9.29
2022-11-03T09:52:32.465Z,9.39
2022-11-03T09:54:59.810Z,9.38
2022-11-03T09:57:29.559Z,9.49
2022-11-03T09:59:56.301Z,9.60
2022-11-03T10:02:29.455Z,9.67
2022-11-03T10:04:58.156Z,9.75
2022-11-03T10:07:27.753Z,9.85
2022-11-03T10:09:56.443Z,9.95
2022-11-03T10:12:24.540Z,10.02
2022-11-03T10:14:52.602Z,10.12
2022-11-03T10:17:22.250Z,10.15
2022-11-03T10:19:52.349Z,10.22
2022-11-03T10:22:20.743Z,10.27
2022-11-03T10:24:47.878Z,10.39
2022-11-03T10:27:25.770Z,10.41
2022-11-03T10:30:12.889Z,10.50
2022-11-03T10:32:41.525Z,10.61
2022-11-03T10:35:34.055Z,10.69
2022-11-03T10:38:30.566Z,10.78
2022-11-03T10:41:10.446Z,10.83
2022-11-03T10:43:38.132Z,10.95
2022-11-03T10:49:18.571Z,11.07
2022-11-03T10:51:48.673Z,11.15
2022-11-03T10:54:18.201Z,11.23
2022-11-03T10:56:45.707Z,11.27
2022-11-03T10:59:21.340Z,11.42
2022-11-03T11:01:48.152Z,11.56
2022-11-03T11:04:20.005Z,11.70
2022-11-03T11:06:47.511Z,11.86
2022-11-03T11:09:23.486Z,12.00
2022-11-03T11:12:23.502Z,12.08
2022-11-03T11:15:01.365Z,12.17
2022-11-03T11:17:37.048Z,12.21
2022-11-03T11:20:18.934Z,12.28
2022-11-03T11:22:46.025Z,12.37
2022-11-03T11:25:12.963Z,12.37
2022-11-03T11:27:39.456Z,12.44
2022-11-03T11:30:27.081Z,12.45
2022-11-03T11:33:12.431Z,12.66
2022-11-03T11:35:39.055Z,12.75
2022-11-03T11:38:47.159Z,12.78
2022-11-03T11:41:13.816Z,12.76
2022-11-03T11:43:40.424Z,12.80
2022-11-03T11:46:36.952Z,12.83
2022-11-03T11:49:17.467Z,12.96
2022-11-03T11:51:44.198Z,12.83
2022-11-03T11:54:18.556Z,12.81
2022-11-03T11:56:47.534Z,12.87
2022-11-03T11:59:25.815Z,12.99
2022-11-03T12:01:55.596Z,13.00
2022-11-03T12:04:22.143Z,13.11
2022-11-03T12:06:49.399Z,13.24
2022-11-03T12:09:21.402Z,13.38
2022-11-03T12:11:55.338Z,13.45
2022-11-03T12:14:28.911Z,13.53
2022-11-03T12:16:56.938Z,13.52
2022-11-03T12:19:35.714Z,13.55
2022-11-03T12:22:04.640Z,13.54
2022-11-03T12:24:31.164Z,13.59
2022-11-03T12:26:58.994Z,13.60
2022-11-03T12:29:25.598Z,13.67
2022-11-03T12:31:52.437Z,13.66
2022-11-03T12:34:19.122Z,13.70
2022-11-03T12:36:47.972Z,13.73
2022-11-03T12:39:16.177Z,13.67
2022-11-03T12:41:42.795Z,13.74
2022-11-03T12:44:09.602Z,13.81
2022-11-03T12:46:36.220Z,13.82
2022-11-03T12:49:02.828Z,13.85
2022-11-03T12:51:29.920Z,13.77
2022-11-03T12:53:56.552Z,13.79
2022-11-03T12:56:23.174Z,13.68
2022-11-03T12:58:49.738Z,13.71
2022-11-03T13:01:16.731Z,13.70
2022-11-03T13:03:43.731Z,13.72
2022-11-03T13:06:11.782Z,13.72
2022-11-03T13:08:53.219Z,13.68
2022-11-03T13:11:54.280Z,13.78
2022-11-03T13:14:21.838Z,13.86
2022-11-03T13:16:48.459Z,13.91
2022-11-03T13:19:17.524Z,13.95
2022-11-03T13:21:44.159Z,14.01
2022-11-03T13:24:10.883Z,13.98
2022-11-03T13:26:37.454Z,14.01
2022-11-03T13:29:04.019Z,14.00
2022-11-03T13:31:31.357Z,14.01
2022-11-03T13:33:57.962Z,14.00
2022-11-03T13:36:24.561Z,14.01
2022-11-03T13:38:51.209Z,13.94
2022-11-03T13:41:17.741Z,13.92
2022-11-03T13:43:44.378Z,13.90
2022-11-03T13:46:12.975Z,13.92
2022-11-03T13:51:26.406Z,13.74
2022-11-03T13:59:27.994Z,13.50
2022-11-03T14:04:43.138Z,13.47
2022-11-03T14:07:10.636Z,13.35
2022-11-03T14:12:27.758Z,13.29
2022-11-03T14:14:54.372Z,13.24
2022-11-03T14:19:52.405Z,13.29
2022-11-03T14:22:24.051Z,13.18
2022-11-03T14:24:51.776Z,13.16
2022-11-03T14:27:20.122Z,13.05
2022-11-03T14:29:49.961Z,13.03
2022-11-03T14:32:17.654Z,13.01
2022-11-03T14:34:44.560Z,12.76
2022-11-03T14:37:11.923Z,12.65
2022-11-03T14:39:39.027Z,12.68
2022-11-03T14:42:09.681Z,12.73
2022-11-03T14:44:38.543Z,12.75
2022-11-03T14:47:07.451Z,12.60
2022-11-03T14:49:35.258Z,12.59
2022-11-03T14:52:03.463Z,12.48
2022-11-03T14:54:31.088Z,12.55
2022-11-03T14:56:58.517Z,12.56
2022-11-03T14:59:25.674Z,12.45
2022-11-03T15:01:52.944Z,12.53
2022-11-03T15:04:20.496Z,12.52
2022-11-03T15:06:47.839Z,12.53
2022-11-03T15:09:15.075Z,12.34
2022-11-03T15:11:43.289Z,12.39
2022-11-03T15:14:10.657Z,12.47
2022-11-03T15:16:37.836Z,12.41
2022-11-03T15:19:05.641Z,12.38
2022-11-03T15:21:33.026Z,12.35
2022-11-03T15:26:46.540Z,12.21
2022-11-03T15:29:13.179Z,12.25
2022-11-03T15:31:44.538Z,12.06
2022-11-03T15:34:14.089Z,12.12
2022-11-03T15:36:40.739Z,12.03
2022-11-03T15:39:07.351Z,12.06
2022-11-03T15:41:33.999Z,11.95
2022-11-03T15:44:00.519Z,11.98
2022-11-03T15:46:27.127Z,11.97
2022-11-03T15:48:54.615Z,11.98
2022-11-03T15:51:21.429Z,11.95
2022-11-03T15:53:49.476Z,11.90
2022-11-03T15:56:18.835Z,11.82
2022-11-03T15:58:45.407Z,11.75
2022-11-03T16:01:12.109Z,11.75
2022-11-03T16:03:38.890Z,11.69
2022-11-03T16:06:05.702Z,11.69
2022-11-03T16:08:32.297Z,11.65
2022-11-03T16:10:58.893Z,11.50
2022-11-03T16:13:25.745Z,11.47
2022-11-03T16:15:55.587Z,11.45
2022-11-03T16:18:22.398Z,11.39
2022-11-03T16:20:48.908Z,11.37
2022-11-03T16:23:15.608Z,11.38
2022-11-03T16:25:42.161Z,11.33
2022-11-03T16:28:09.118Z,11.20
2022-11-03T16:30:38.445Z,11.24
2022-11-03T16:33:05.193Z,11.19
2022-11-03T16:35:31.924Z,11.14
2022-11-03T16:37:58.482Z,11.11
2022-11-03T16:40:25.080Z,11.08
2022-11-03T16:42:51.696Z,11.05
2022-11-03T16:45:23.657Z,11.03
2022-11-03T16:47:51.165Z,10.99
2022-11-03T16:50:18.841Z,11.00
2022-11-03T16:52:49.743Z,10.92
2022-11-03T16:55:17.744Z,10.90
2022-11-03T16:57:44.722Z,10.89
2022-11-03T17:00:14.943Z,10.88
2022-11-03T17:02:42.039Z,10.96
2022-11-03T17:05:10.033Z,10.95
2022-11-03T17:07:36.848Z,10.93
2022-11-03T17:10:04.971Z,10.89
2022-11-03T17:12:31.709Z,10.84
2022-11-03T17:14:58.664Z,10.88
2022-11-03T17:17:25.251Z,10.91
2022-11-03T17:19:51.997Z,10.95
2022-11-03T17:22:20.286Z,10.99
2022-11-03T17:24:46.830Z,10.95
2022-11-03T17:27:16.620Z,10.93
2022-11-03T17:29:49.919Z,10.93
2022-11-03T17:32:21.781Z,10.89
2022-11-03T17:34:48.401Z,10.92
2022-11-03T17:37:15.089Z,10.89
2022-11-03T17:39:41.896Z,10.86
2022-11-03T17:42:21.662Z,10.85
2022-11-03T17:44:50.359Z,10.80
2022-11-03T17:47:19.353Z,10.72
2022-11-03T17:49:47.152Z,10.76
2022-11-03T17:52:26.884Z,10.95
2022-11-03T17:54:57.384Z,11.12
2022-11-03T17:57:25.247Z,11.15
2022-11-03T17:59:55.417Z,11.17
2022-11-03T18:02:27.210Z,11.20
2022-11-03T18:05:01.155Z,11.17
2022-11-03T18:07:29.600Z,11.23
2022-11-03T18:09:56.444Z,11.27
2022-11-03T18:12:45.040Z,11.32
2022-11-03T18:15:16.406Z,11.33
2022-11-03T18:17:43.485Z,11.27
2022-11-03T18:20:14.507Z,11.33
2022-11-03T18:22:41.049Z,11.37
2022-11-03T18:25:19.096Z,11.39
2022-11-03T18:27:46.001Z,11.39
2022-11-03T18:30:16.826Z,11.35
2022-11-03T18:32:48.305Z,11.36
2022-11-03T18:35:18.792Z,11.42
2022-11-03T18:37:46.249Z,11.32
2022-11-03T18:40:14.875Z,11.37
2022-11-03T18:42:41.717Z,11.36
2022-11-03T18:45:12.979Z,11.35
2022-11-03T18:47:40.348Z,11.29
2022-11-03T18:50:07.889Z,11.39
2022-11-03T18:52:41.991Z,11.36
2022-11-03T18:55:12.782Z,11.43
2022-11-03T18:57:39.838Z,11.44
2022-11-03T19:00:19.056Z,11.35
2022-11-03T19:02:47.437Z,11.32
2022-11-03T19:05:15.557Z,11.37
2022-11-03T19:07:45.324Z,11.45
2022-11-03T19:10:19.543Z,11.42
2022-11-03T19:12:46.897Z,11.36
2022-11-03T19:15:20.264Z,11.39
2022-11-03T19:17:49.465Z,11.41
2022-11-03T19:20:18.395Z,11.39
2022-11-03T19:22:46.426Z,11.37
2022-11-03T19:25:14.678Z,11.35
2022-11-03T19:27:45.945Z,11.37
2022-11-03T19:30:15.303Z,11.37
2022-11-03T19:32:45.932Z,11.37
2022-11-03T19:35:21.534Z,11.38
2022-11-03T19:37:51.003Z,11.41
2022-11-03T19:40:18.712Z,11.35
2022-11-03T19:42:45.498Z,11.35
2022-11-03T19:45:17.700Z,11.39
2022-11-03T19:48:28.473Z,11.43
2022-11-03T19:50:45.577Z,11.46
2022-11-03T19:53:20.117Z,11.44
2022-11-03T19:55:47.454Z,11.45
2022-11-03T19:58:34.392Z,11.45
2022-11-03T20:01:07.261Z,11.46
2022-11-03T20:03:35.492Z,11.45
2022-11-03T20:06:02.148Z,11.45
2022-11-03T20:08:32.290Z,11.43
2022-11-03T20:10:59.224Z,11.46
2022-11-03T20:13:30.171Z,11.45
2022-11-03T20:16:00.519Z,11.48
2022-11-03T20:18:28.318Z,11.43
2022-11-03T20:20:55.296Z,11.43
2022-11-03T20:23:30.375Z,11.41
2022-11-03T20:25:57.439Z,11.41
2022-11-03T20:28:28.495Z,11.39
2022-11-03T20:30:56.124Z,11.38
2022-11-03T20:33:24.967Z,11.35
2022-11-03T20:35:53.710Z,11.33
2022-11-03T20:38:20.921Z,11.34
2022-11-03T20:40:49.125Z,11.32
2022-11-03T20:43:26.608Z,11.29
2022-11-03T20:45:54.945Z,11.26
2022-11-03T20:48:21.981Z,11.23
2022-11-03T20:50:48.986Z,11.19
2022-11-03T20:53:18.650Z,11.18
2022-11-03T20:55:45.343Z,11.13
2022-11-03T20:58:16.479Z,11.15
2022-11-03T21:00:46.027Z,11.17
2022-11-03T21:06:16.379Z,11.29
2022-11-03T21:08:43.940Z,11.28
2022-11-03T21:11:26.993Z,11.26
